Share

Kitakyushu, Japan

Kitakyushu (RJFR) Elev 30 ft | 33.85 °N, 131.04 °E | Change Station

Current weather conditions updated 52 minutes ago

Light Rain
Light Rain Mist
55 °F
Feels Like 55 °F
N
2
Wind Variable Wind from Variable
Sunrise 5:38 AM
Sunset 6:51 PM
Moon Waning Gibbous

Today is forecast to be Warmer than yesterday.

Pressure 29.95 in
Visibility 1.9 miles
Clouds Few 500 ft
Scattered Clouds 1000 ft
Mostly Cloudy 1500 ft
Dew Point 52 °F
Humidity 88%
Rainfall 0.00 in
Snow Depth Not available.
UV 1 out of 16
Pollen Not available.
Air Quality Not available.
Flu Activity Not available.
METAR RJFR 202200Z VRB02KT 3000 -RA BR FEW005 SCT010 BKN015 13/11 Q1014

More Conditions Fewer Conditions

Pressure 29.95 in
Visibility 1.9 miles
Clouds Few 500 ft
Scattered Clouds 1000 ft
Mostly Cloudy 1500 ft
Dew Point 52 °F
Humidity 88%
Rainfall 0.00 in
Snow Depth Not available.
UV 1 out of 16
Pollen Not available.
Air Quality Not available.
Flu Activity Not available.
METAR RJFR 202200Z VRB02KT 3000 -RA BR FEW005 SCT010 BKN015 13/11 Q1014

More Conditions Fewer Conditions

10-Day Weather Forecast

Almanac

Astronomy

Apr. 21, 2014 Rise Set
Actual Time 5:38 AM JST 6:51 PM JST
Civil Twilight 5:12 AM JST 7:17 PM JST
Nautical Twilight 4:41 AM JST 7:48 PM JST
Astronomical Twilight 4:09 AM JST 8:20 PM JST
Moon No Moon Rise 10:29 AM JST (4/21)
Length of Visible Light 14h 04m
Length of Day
13h 12m
Tomorrow will be 1m 57s longer.
Waning Gibbous, 66% of the Moon is Illuminated
Apr 20
Waning Gibbous
Apr 22
Last Quarter
Apr 29
New
May 6
First Quarter
May 14
Full

Yesterday's Extremes

Country Highs Country Lows

Community

  • spring skiing mount Baker WA
    spring skiing mount Baker WA
  • Morning Sun
    Morning Sun
  • after rain
    after rain
  • Columbine
    Columbine
  • Easter Sunrise
    Easter Sunrise

WunderPhotos

Upload Photos

1,703,423 photos uploaded!

WunderBlogs® & News

Nearby

Snow Depth

Not available.

Coastal Water Temperatures

Place Temperature
No Stations Reporting

Earthquake Activity

City Distance Mag. Time & Date
No recent earthquake activity has been reported nearby.
Minimum magnitude displayed is 2.5.

Nearby Weather Stations

There are no personal weather stations in this area.

What do you think?

We're not finished. Please let us know what you like, what you don't like, and what you are still missing.